WZZ5SA EPGD-ENAL
Flight info
| Callsign | WZZ5SA |
|---|---|
| Flight time | 1h 44m |
| Altitude | 36000 |
| Route | VAPOS N133 PENOR DCT KSD DCT MASEV DCT EVTOG DCT VAMTO DCT TESLU DCT VEPUL |
| Aircraft | A321/M-SDE1E2E3FGIJ1J4RWXY/LB1 |
Departure
| Time | 2026-04-23 09:35 |
|---|---|
| Airport | Gdańsk Lech Wałęsa Airport (EPGD) |
Arrival
| Time | 2026-04-23 11:19 |
|---|---|
| Airport | Ålesund Airport (ENAL) |
| Time | Latitude | Longitude | Altitude | Speed | Heading |
|---|---|---|---|---|---|
| 2026-04-23 09:05 | 54.38129 | 18.46559 | 460 ft | 0 kts | 23° |
| 2026-04-23 09:25 | 54.38128 | 18.46559 | 460 ft | 1 kts | 23° |
| 2026-04-23 09:25 | 54.38116 | 18.46549 | 459 ft | 3 kts | 36° |
| 2026-04-23 09:25 | 54.38103 | 18.46528 | 457 ft | 3 kts | 66° |
| 2026-04-23 09:25 | 54.38098 | 18.46497 | 457 ft | 3 kts | 98° |
| 2026-04-23 09:26 | 54.38101 | 18.46476 | 457 ft | 1 kts | 113° |
| 2026-04-23 09:26 | 54.38101 | 18.46475 | 457 ft | 0 kts | 113° |
| 2026-04-23 09:29 | 54.38100 | 18.46479 | 457 ft | 2 kts | 113° |
| 2026-04-23 09:29 | 54.38084 | 18.46544 | 458 ft | 10 kts | 113° |
| 2026-04-23 09:29 | 54.38036 | 18.46617 | 460 ft | 10 kts | 185° |
| 2026-04-23 09:30 | 54.37971 | 18.46583 | 459 ft | 9 kts | 182° |
| 2026-04-23 09:30 | 54.37927 | 18.46660 | 459 ft | 12 kts | 115° |
| 2026-04-23 09:30 | 54.37884 | 18.46831 | 459 ft | 19 kts | 112° |
| 2026-04-23 09:30 | 54.37826 | 18.47065 | 459 ft | 22 kts | 113° |
| 2026-04-23 09:31 | 54.37765 | 18.47314 | 460 ft | 23 kts | 112° |
| 2026-04-23 09:31 | 54.37703 | 18.47564 | 461 ft | 22 kts | 113° |
| 2026-04-23 09:31 | 54.37644 | 18.47802 | 465 ft | 22 kts | 112° |
| 2026-04-23 09:31 | 54.37582 | 18.48053 | 473 ft | 22 kts | 113° |
| 2026-04-23 09:32 | 54.37521 | 18.48300 | 475 ft | 23 kts | 112° |
| 2026-04-23 09:32 | 54.37460 | 18.48547 | 481 ft | 22 kts | 114° |
| 2026-04-23 09:32 | 54.37398 | 18.48797 | 483 ft | 23 kts | 113° |
| 2026-04-23 09:32 | 54.37335 | 18.49049 | 489 ft | 21 kts | 112° |
| 2026-04-23 09:33 | 54.37295 | 18.49213 | 492 ft | 10 kts | 112° |
| 2026-04-23 09:33 | 54.37245 | 18.49279 | 495 ft | 10 kts | 179° |
| 2026-04-23 09:33 | 54.37182 | 18.49220 | 489 ft | 12 kts | 225° |
| 2026-04-23 09:33 | 54.37145 | 18.49154 | 496 ft | 5 kts | 230° |
| 2026-04-23 09:34 | 54.37146 | 18.49092 | 486 ft | 6 kts | 288° |
| 2026-04-23 09:34 | 54.37174 | 18.48979 | 486 ft | 22 kts | 293° |
| 2026-04-23 09:34 | 54.37342 | 18.48302 | 476 ft | 99 kts | 292° |
| 2026-04-23 09:34 | 54.37562 | 18.47414 | 467 ft | 142 kts | 293° |
| 2026-04-23 09:35 | 54.38009 | 18.45720 | 895 ft | 157 kts | 295° |
| 2026-04-23 09:35 | 54.38431 | 18.44009 | 1799 ft | 156 kts | 294° |
| 2026-04-23 09:35 | 54.38858 | 18.42202 | 2367 ft | 170 kts | 297° |
| 2026-04-23 09:35 | 54.39329 | 18.40242 | 2966 ft | 184 kts | 296° |
| 2026-04-23 09:36 | 54.39830 | 18.38167 | 3562 ft | 193 kts | 297° |
| 2026-04-23 09:36 | 54.40369 | 18.35977 | 3946 ft | 208 kts | 297° |
| 2026-04-23 09:36 | 54.40967 | 18.33573 | 4246 ft | 231 kts | 298° |
| 2026-04-23 09:36 | 54.41633 | 18.30950 | 4875 ft | 246 kts | 298° |
| 2026-04-23 09:37 | 54.42337 | 18.28214 | 5644 ft | 253 kts | 302° |
| 2026-04-23 09:37 | 54.43442 | 18.25945 | 6527 ft | 246 kts | 329° |
| 2026-04-23 09:37 | 54.44897 | 18.24401 | 7390 ft | 246 kts | 331° |
| 2026-04-23 09:37 | 54.46357 | 18.22851 | 8225 ft | 248 kts | 331° |
| 2026-04-23 09:38 | 54.47849 | 18.21262 | 8882 ft | 257 kts | 332° |
| 2026-04-23 09:38 | 54.49389 | 18.19638 | 9626 ft | 262 kts | 332° |
| 2026-04-23 09:38 | 54.50954 | 18.17989 | 10355 ft | 267 kts | 332° |
| 2026-04-23 09:38 | 54.52600 | 18.16256 | 10595 ft | 289 kts | 332° |
| 2026-04-23 09:39 | 54.54373 | 18.14390 | 10922 ft | 305 kts | 332° |
| 2026-04-23 09:39 | 54.56204 | 18.12452 | 11571 ft | 310 kts | 331° |
| 2026-04-23 09:39 | 54.58048 | 18.10487 | 12300 ft | 313 kts | 331° |
| 2026-04-23 09:39 | 54.59884 | 18.08440 | 13037 ft | 317 kts | 327° |
| 2026-04-23 09:40 | 54.61643 | 18.06130 | 13770 ft | 319 kts | 326° |
| 2026-04-23 09:40 | 54.63420 | 18.03798 | 14440 ft | 322 kts | 326° |
| 2026-04-23 09:40 | 54.65209 | 18.01457 | 15092 ft | 324 kts | 327° |
| 2026-04-23 09:40 | 54.67013 | 17.99095 | 15728 ft | 327 kts | 327° |
| 2026-04-23 09:41 | 54.68837 | 17.96711 | 16381 ft | 330 kts | 327° |
| 2026-04-23 09:41 | 54.70676 | 17.94307 | 17032 ft | 333 kts | 327° |
| 2026-04-23 09:41 | 54.72530 | 17.91878 | 17660 ft | 336 kts | 327° |
| 2026-04-23 09:41 | 54.74399 | 17.89426 | 18286 ft | 339 kts | 327° |
| 2026-04-23 09:42 | 54.76282 | 17.86953 | 18843 ft | 342 kts | 328° |
| 2026-04-23 09:42 | 54.78186 | 17.84449 | 19378 ft | 344 kts | 328° |
| 2026-04-23 09:42 | 54.80182 | 17.82187 | 19920 ft | 342 kts | 337° |
| 2026-04-23 09:42 | 54.82345 | 17.80475 | 20466 ft | 343 kts | 340° |
| 2026-04-23 09:43 | 54.84526 | 17.78778 | 21029 ft | 345 kts | 340° |
| 2026-04-23 09:43 | 54.86723 | 17.77054 | 21580 ft | 348 kts | 340° |
| 2026-04-23 09:43 | 54.88932 | 17.75309 | 22129 ft | 350 kts | 340° |
| 2026-04-23 09:43 | 54.91155 | 17.73547 | 22684 ft | 352 kts | 340° |
| 2026-04-23 09:44 | 54.93393 | 17.71775 | 23213 ft | 355 kts | 340° |
| 2026-04-23 09:44 | 54.95649 | 17.69991 | 23737 ft | 357 kts | 341° |
| 2026-04-23 09:44 | 54.97918 | 17.68197 | 24161 ft | 359 kts | 341° |
| 2026-04-23 09:44 | 55.00206 | 17.66420 | 24594 ft | 361 kts | 341° |
| 2026-04-23 09:45 | 55.02510 | 17.64663 | 25024 ft | 362 kts | 341° |
| 2026-04-23 09:45 | 55.04826 | 17.62905 | 25445 ft | 364 kts | 341° |
| 2026-04-23 09:45 | 55.07152 | 17.61139 | 25865 ft | 366 kts | 341° |
| 2026-04-23 09:45 | 55.09495 | 17.59358 | 26278 ft | 367 kts | 341° |
| 2026-04-23 09:46 | 55.11842 | 17.57572 | 26671 ft | 369 kts | 341° |
| 2026-04-23 09:46 | 55.14201 | 17.55765 | 27082 ft | 371 kts | 341° |
| 2026-04-23 09:46 | 55.16569 | 17.53938 | 27479 ft | 373 kts | 341° |
| 2026-04-23 09:46 | 55.18947 | 17.52099 | 27870 ft | 374 kts | 341° |
| 2026-04-23 09:47 | 55.21339 | 17.50250 | 28258 ft | 376 kts | 341° |
| 2026-04-23 09:47 | 55.23734 | 17.48384 | 28643 ft | 378 kts | 341° |
| 2026-04-23 09:47 | 55.26140 | 17.46487 | 29023 ft | 380 kts | 341° |
| 2026-04-23 09:47 | 55.28555 | 17.44566 | 29398 ft | 382 kts | 340° |
| 2026-04-23 09:48 | 55.30979 | 17.42625 | 29755 ft | 384 kts | 340° |
| 2026-04-23 09:48 | 55.33412 | 17.40674 | 30112 ft | 385 kts | 340° |
| 2026-04-23 09:48 | 55.35856 | 17.38713 | 30425 ft | 387 kts | 340° |
| 2026-04-23 09:48 | 55.38316 | 17.36739 | 30708 ft | 389 kts | 340° |
| 2026-04-23 09:49 | 55.40786 | 17.34761 | 30992 ft | 391 kts | 340° |
| 2026-04-23 09:49 | 55.43264 | 17.32775 | 31287 ft | 393 kts | 340° |
| 2026-04-23 09:49 | 55.45759 | 17.30771 | 31574 ft | 395 kts | 340° |
| 2026-04-23 09:49 | 55.48264 | 17.28756 | 31871 ft | 396 kts | 340° |
| 2026-04-23 09:50 | 55.50766 | 17.26743 | 32284 ft | 395 kts | 340° |
| 2026-04-23 09:50 | 55.53263 | 17.24729 | 32704 ft | 394 kts | 340° |
| 2026-04-23 09:50 | 55.55749 | 17.22717 | 33104 ft | 393 kts | 340° |
| 2026-04-23 09:50 | 55.58231 | 17.20705 | 33496 ft | 392 kts | 340° |
| 2026-04-23 09:51 | 55.60702 | 17.18702 | 33894 ft | 391 kts | 341° |
| 2026-04-23 09:51 | 55.63170 | 17.16705 | 34271 ft | 390 kts | 341° |
| 2026-04-23 09:51 | 55.65593 | 17.14679 | 34583 ft | 390 kts | 339° |
| 2026-04-23 09:51 | 55.68027 | 17.12543 | 34893 ft | 390 kts | 339° |
| 2026-04-23 09:52 | 55.70447 | 17.10357 | 35190 ft | 391 kts | 338° |
| 2026-04-23 09:52 | 55.72863 | 17.08148 | 35495 ft | 391 kts | 338° |
| 2026-04-23 09:52 | 55.75281 | 17.05932 | 35782 ft | 391 kts | 338° |
| 2026-04-23 09:52 | 55.77697 | 17.03725 | 36071 ft | 391 kts | 338° |
| 2026-04-23 09:53 | 55.80119 | 17.01524 | 36162 ft | 390 kts | 338° |
| 2026-04-23 09:53 | 55.84935 | 16.97166 | 36184 ft | 387 kts | 338° |
| 2026-04-23 09:54 | 55.89737 | 16.92826 | 36170 ft | 387 kts | 338° |
| 2026-04-23 09:54 | 55.94538 | 16.88474 | 36183 ft | 387 kts | 338° |
| 2026-04-23 09:55 | 55.99338 | 16.84101 | 36176 ft | 387 kts | 338° |
| 2026-04-23 09:55 | 56.04133 | 16.79710 | 36179 ft | 388 kts | 338° |
| 2026-04-23 09:56 | 56.08937 | 16.75307 | 36184 ft | 388 kts | 338° |
| 2026-04-23 09:56 | 56.13743 | 16.70902 | 36187 ft | 388 kts | 338° |
| 2026-04-23 09:57 | 56.18555 | 16.66463 | 36190 ft | 389 kts | 338° |
| 2026-04-23 09:57 | 56.23363 | 16.62006 | 36191 ft | 389 kts | 337° |
| 2026-04-23 09:58 | 56.28166 | 16.57537 | 36194 ft | 389 kts | 337° |
| 2026-04-23 09:58 | 56.32974 | 16.53070 | 36194 ft | 389 kts | 337° |
| 2026-04-23 09:59 | 56.37780 | 16.48597 | 36191 ft | 389 kts | 337° |
| 2026-04-23 09:59 | 56.42592 | 16.44106 | 36188 ft | 389 kts | 337° |
| 2026-04-23 10:00 | 56.47395 | 16.39593 | 36186 ft | 389 kts | 337° |
| 2026-04-23 10:00 | 56.52198 | 16.35068 | 36182 ft | 389 kts | 337° |
| 2026-04-23 10:01 | 56.57002 | 16.30548 | 36182 ft | 389 kts | 337° |
| 2026-04-23 10:01 | 56.61803 | 16.26008 | 36183 ft | 389 kts | 336° |
| 2026-04-23 10:02 | 56.66573 | 16.21474 | 36183 ft | 389 kts | 336° |
| 2026-04-23 10:02 | 56.71372 | 16.16913 | 36180 ft | 389 kts | 336° |
| 2026-04-23 10:03 | 56.76168 | 16.12336 | 36184 ft | 389 kts | 336° |
| 2026-04-23 10:03 | 56.80965 | 16.07745 | 36182 ft | 389 kts | 336° |
| 2026-04-23 10:04 | 56.85754 | 16.03152 | 36164 ft | 388 kts | 336° |
| 2026-04-23 10:04 | 56.90525 | 15.98560 | 36165 ft | 388 kts | 336° |
| 2026-04-23 10:05 | 56.95301 | 15.93944 | 36163 ft | 388 kts | 336° |
| 2026-04-23 10:05 | 57.00084 | 15.89324 | 36166 ft | 389 kts | 336° |
| 2026-04-23 10:06 | 57.04872 | 15.84677 | 36168 ft | 390 kts | 336° |
| 2026-04-23 10:06 | 57.09670 | 15.80003 | 36172 ft | 390 kts | 336° |
| 2026-04-23 10:07 | 57.14471 | 15.75309 | 36177 ft | 391 kts | 336° |
| 2026-04-23 10:07 | 57.19280 | 15.70599 | 36177 ft | 392 kts | 336° |
| 2026-04-23 10:08 | 57.24095 | 15.65870 | 36181 ft | 392 kts | 335° |
| 2026-04-23 10:08 | 57.28916 | 15.61119 | 36187 ft | 393 kts | 335° |
| 2026-04-23 10:09 | 57.36156 | 15.53947 | 36185 ft | 394 kts | 335° |
| 2026-04-23 10:09 | 57.40957 | 15.49167 | 36190 ft | 394 kts | 335° |
| 2026-04-23 10:10 | 57.45797 | 15.44362 | 36187 ft | 395 kts | 335° |
| 2026-04-23 10:10 | 57.50642 | 15.39539 | 36196 ft | 395 kts | 335° |
| 2026-04-23 10:11 | 57.55482 | 15.34675 | 36192 ft | 396 kts | 335° |
| 2026-04-23 10:11 | 57.60338 | 15.29801 | 36197 ft | 396 kts | 335° |
| 2026-04-23 10:12 | 57.65197 | 15.24908 | 36199 ft | 397 kts | 335° |
| 2026-04-23 10:12 | 57.70063 | 15.19987 | 36201 ft | 398 kts | 335° |
| 2026-04-23 10:13 | 57.74929 | 15.15043 | 36199 ft | 398 kts | 335° |
| 2026-04-23 10:13 | 57.79794 | 15.10078 | 36207 ft | 399 kts | 335° |
| 2026-04-23 10:14 | 57.84669 | 15.05103 | 36206 ft | 399 kts | 335° |
| 2026-04-23 10:14 | 57.89554 | 15.00119 | 36209 ft | 400 kts | 335° |
| 2026-04-23 10:15 | 57.94437 | 14.95096 | 36208 ft | 400 kts | 335° |
| 2026-04-23 10:15 | 57.99325 | 14.90056 | 36213 ft | 401 kts | 335° |
| 2026-04-23 10:16 | 58.04224 | 14.84998 | 36212 ft | 402 kts | 335° |
| 2026-04-23 10:16 | 58.09128 | 14.79912 | 36214 ft | 402 kts | 335° |
| 2026-04-23 10:17 | 58.14001 | 14.74850 | 36213 ft | 403 kts | 334° |
| 2026-04-23 10:17 | 58.18912 | 14.69734 | 36219 ft | 403 kts | 334° |
| 2026-04-23 10:18 | 58.23832 | 14.64588 | 36211 ft | 404 kts | 334° |
| 2026-04-23 10:18 | 58.28747 | 14.59423 | 36214 ft | 404 kts | 334° |
| 2026-04-23 10:19 | 58.32870 | 14.55068 | 36212 ft | 405 kts | 334° |
| 2026-04-23 10:19 | 58.37792 | 14.49854 | 36213 ft | 405 kts | 334° |
| 2026-04-23 10:20 | 58.42689 | 14.44665 | 36211 ft | 405 kts | 334° |
| 2026-04-23 10:20 | 58.47628 | 14.39419 | 36214 ft | 406 kts | 334° |
| 2026-04-23 10:21 | 58.52563 | 14.34165 | 36210 ft | 406 kts | 334° |
| 2026-04-23 10:21 | 58.57505 | 14.28878 | 36215 ft | 407 kts | 334° |
| 2026-04-23 10:22 | 58.62449 | 14.23575 | 36212 ft | 407 kts | 334° |
| 2026-04-23 10:22 | 58.67394 | 14.18255 | 36216 ft | 408 kts | 334° |
| 2026-04-23 10:23 | 58.72344 | 14.12906 | 36216 ft | 408 kts | 334° |
| 2026-04-23 10:23 | 58.77298 | 14.07537 | 36224 ft | 409 kts | 334° |
| 2026-04-23 10:24 | 58.82256 | 14.02132 | 36220 ft | 410 kts | 334° |
| 2026-04-23 10:24 | 58.87222 | 13.96714 | 36227 ft | 410 kts | 334° |
| 2026-04-23 10:25 | 58.92193 | 13.91279 | 36224 ft | 411 kts | 334° |
| 2026-04-23 10:25 | 58.97141 | 13.85852 | 36225 ft | 411 kts | 334° |
| 2026-04-23 10:26 | 59.02124 | 13.80365 | 36222 ft | 412 kts | 333° |
| 2026-04-23 10:26 | 59.07112 | 13.74841 | 36224 ft | 413 kts | 333° |
| 2026-04-23 10:27 | 59.12105 | 13.69302 | 36224 ft | 413 kts | 333° |
| 2026-04-23 10:27 | 59.17100 | 13.63729 | 36218 ft | 414 kts | 333° |
| 2026-04-23 10:28 | 59.22098 | 13.58128 | 36215 ft | 414 kts | 333° |
| 2026-04-23 10:28 | 59.27102 | 13.52528 | 36211 ft | 415 kts | 333° |
| 2026-04-23 10:29 | 59.32111 | 13.46895 | 36209 ft | 415 kts | 333° |
| 2026-04-23 10:29 | 59.37122 | 13.41233 | 36183 ft | 416 kts | 333° |
| 2026-04-23 10:30 | 59.42130 | 13.35556 | 36182 ft | 416 kts | 333° |
| 2026-04-23 10:30 | 59.47170 | 13.29916 | 36184 ft | 416 kts | 334° |
| 2026-04-23 10:31 | 59.52275 | 13.24548 | 36185 ft | 416 kts | 335° |
| 2026-04-23 10:31 | 59.57391 | 13.19199 | 36186 ft | 416 kts | 335° |
| 2026-04-23 10:32 | 59.62497 | 13.13774 | 36194 ft | 417 kts | 335° |
| 2026-04-23 10:32 | 59.67595 | 13.08306 | 36202 ft | 417 kts | 335° |
| 2026-04-23 10:33 | 59.72695 | 13.02821 | 36207 ft | 417 kts | 334° |
| 2026-04-23 10:33 | 59.77798 | 12.97299 | 36214 ft | 418 kts | 334° |
| 2026-04-23 10:34 | 59.82874 | 12.91797 | 36209 ft | 418 kts | 334° |
| 2026-04-23 10:34 | 59.87978 | 12.86254 | 36203 ft | 418 kts | 334° |
| 2026-04-23 10:35 | 59.93090 | 12.80683 | 36196 ft | 419 kts | 334° |
| 2026-04-23 10:35 | 59.98196 | 12.75094 | 36192 ft | 419 kts | 334° |
| 2026-04-23 10:36 | 60.03309 | 12.69480 | 36189 ft | 419 kts | 334° |
| 2026-04-23 10:36 | 60.08416 | 12.63848 | 36192 ft | 419 kts | 334° |
| 2026-04-23 10:37 | 60.13530 | 12.58191 | 36190 ft | 420 kts | 333° |
| 2026-04-23 10:37 | 60.18058 | 12.50698 | 36196 ft | 429 kts | 313° |
| 2026-04-23 10:38 | 60.21190 | 12.40359 | 36196 ft | 436 kts | 301° |
| 2026-04-23 10:38 | 60.23987 | 12.29515 | 36199 ft | 437 kts | 301° |
| 2026-04-23 10:39 | 60.26800 | 12.18622 | 36196 ft | 438 kts | 301° |
| 2026-04-23 10:39 | 60.29600 | 12.07697 | 36199 ft | 439 kts | 301° |
| 2026-04-23 10:40 | 60.32386 | 11.96710 | 36181 ft | 441 kts | 301° |
| 2026-04-23 10:40 | 60.35195 | 11.85633 | 36172 ft | 444 kts | 301° |
| 2026-04-23 10:41 | 60.38020 | 11.74477 | 36172 ft | 447 kts | 301° |
| 2026-04-23 10:41 | 60.40844 | 11.63254 | 36175 ft | 449 kts | 301° |
| 2026-04-23 10:42 | 60.43660 | 11.51961 | 36177 ft | 450 kts | 300° |
| 2026-04-23 10:42 | 60.46475 | 11.40618 | 36184 ft | 451 kts | 300° |
| 2026-04-23 10:43 | 60.49288 | 11.29220 | 36186 ft | 452 kts | 300° |
| 2026-04-23 10:43 | 60.52077 | 11.17857 | 36189 ft | 453 kts | 300° |
| 2026-04-23 10:44 | 60.54890 | 11.06380 | 36192 ft | 454 kts | 300° |
| 2026-04-23 10:44 | 60.57691 | 10.94868 | 36185 ft | 455 kts | 300° |
| 2026-04-23 10:45 | 60.60491 | 10.83299 | 36192 ft | 456 kts | 300° |
| 2026-04-23 10:45 | 60.63290 | 10.71694 | 36189 ft | 457 kts | 300° |
| 2026-04-23 10:46 | 60.66080 | 10.60053 | 36191 ft | 458 kts | 299° |
| 2026-04-23 10:46 | 60.68859 | 10.48357 | 36189 ft | 458 kts | 299° |
| 2026-04-23 10:47 | 60.71635 | 10.36624 | 36192 ft | 459 kts | 299° |
| 2026-04-23 10:47 | 60.74407 | 10.24855 | 36196 ft | 460 kts | 299° |
| 2026-04-23 10:48 | 60.77178 | 10.13032 | 36197 ft | 461 kts | 299° |
| 2026-04-23 10:48 | 60.80384 | 10.01795 | 36179 ft | 454 kts | 314° |
| 2026-04-23 10:49 | 60.82595 | 9.97262 | 36181 ft | 448 kts | 325° |
| 2026-04-23 10:49 | 60.85133 | 9.93634 | 36192 ft | 442 kts | 335° |
| 2026-04-23 10:49 | 60.90797 | 9.89218 | 36201 ft | 433 kts | 351° |
| 2026-04-23 10:50 | 60.96676 | 9.86368 | 36206 ft | 434 kts | 351° |
| 2026-04-23 10:50 | 61.02573 | 9.83497 | 36213 ft | 435 kts | 351° |
| 2026-04-23 10:51 | 61.08467 | 9.80602 | 36214 ft | 436 kts | 351° |
| 2026-04-23 10:51 | 61.14367 | 9.77674 | 36219 ft | 436 kts | 351° |
| 2026-04-23 10:52 | 61.20267 | 9.74752 | 36224 ft | 436 kts | 351° |
| 2026-04-23 10:52 | 61.26174 | 9.71815 | 36232 ft | 436 kts | 351° |
| 2026-04-23 10:53 | 61.31861 | 9.67209 | 36235 ft | 445 kts | 335° |
| 2026-04-23 10:53 | 61.37279 | 9.60959 | 36239 ft | 445 kts | 336° |
| 2026-04-23 10:54 | 61.42701 | 9.54725 | 36234 ft | 445 kts | 336° |
| 2026-04-23 10:54 | 61.47929 | 9.47700 | 36234 ft | 449 kts | 329° |
| 2026-04-23 10:55 | 61.52970 | 9.40091 | 36239 ft | 450 kts | 329° |
| 2026-04-23 10:55 | 61.58040 | 9.32396 | 36236 ft | 450 kts | 329° |
| 2026-04-23 10:56 | 61.63076 | 9.24754 | 36648 ft | 426 kts | 322° |
| 2026-04-23 10:56 | 61.65380 | 9.21263 | 37610 ft | 393 kts | 322° |
| 2026-04-23 10:56 | 61.67563 | 9.17945 | 37683 ft | 391 kts | 322° |
| 2026-04-23 10:57 | 61.69798 | 9.14522 | 36981 ft | 403 kts | 321° |
| 2026-04-23 10:57 | 61.72086 | 9.11002 | 36068 ft | 413 kts | 321° |
| 2026-04-23 10:57 | 61.74437 | 9.07376 | 35055 ft | 423 kts | 322° |
| 2026-04-23 10:57 | 61.76829 | 9.03685 | 34139 ft | 429 kts | 322° |
| 2026-04-23 10:58 | 61.79260 | 8.99941 | 33146 ft | 434 kts | 322° |
| 2026-04-23 10:58 | 61.81711 | 8.96166 | 32175 ft | 438 kts | 322° |
| 2026-04-23 10:58 | 61.84174 | 8.92370 | 31413 ft | 435 kts | 323° |
| 2026-04-23 10:58 | 61.86606 | 8.88609 | 30538 ft | 431 kts | 323° |
| 2026-04-23 10:59 | 61.89018 | 8.84864 | 29582 ft | 428 kts | 323° |
| 2026-04-23 10:59 | 61.91411 | 8.81140 | 28735 ft | 423 kts | 323° |
| 2026-04-23 10:59 | 61.93771 | 8.77460 | 27949 ft | 418 kts | 323° |
| 2026-04-23 10:59 | 61.96096 | 8.73822 | 27150 ft | 413 kts | 323° |
| 2026-04-23 11:00 | 61.98393 | 8.70219 | 26609 ft | 407 kts | 323° |
| 2026-04-23 11:00 | 62.00656 | 8.66674 | 26112 ft | 401 kts | 323° |
| 2026-04-23 11:00 | 62.02887 | 8.63177 | 25620 ft | 396 kts | 323° |
| 2026-04-23 11:00 | 62.05086 | 8.59717 | 25142 ft | 391 kts | 324° |
| 2026-04-23 11:01 | 62.07257 | 8.56296 | 24685 ft | 386 kts | 324° |
| 2026-04-23 11:01 | 62.09401 | 8.52910 | 24235 ft | 382 kts | 324° |
| 2026-04-23 11:01 | 62.11524 | 8.49548 | 23763 ft | 378 kts | 324° |
| 2026-04-23 11:01 | 62.13622 | 8.46216 | 23304 ft | 373 kts | 324° |
| 2026-04-23 11:02 | 62.15692 | 8.42922 | 22888 ft | 369 kts | 324° |
| 2026-04-23 11:02 | 62.17035 | 8.40784 | 22611 ft | 366 kts | 324° |
| 2026-04-23 11:02 | 62.18999 | 8.37309 | 22170 ft | 363 kts | 316° |
| 2026-04-23 11:02 | 62.20617 | 8.33166 | 21730 ft | 361 kts | 306° |
| 2026-04-23 11:03 | 62.21856 | 8.28508 | 21294 ft | 360 kts | 298° |
| 2026-04-23 11:03 | 62.22978 | 8.23735 | 20862 ft | 356 kts | 299° |
| 2026-04-23 11:03 | 62.24094 | 8.19018 | 20421 ft | 353 kts | 299° |
| 2026-04-23 11:03 | 62.25202 | 8.14340 | 19978 ft | 350 kts | 299° |
| 2026-04-23 11:04 | 62.26301 | 8.09697 | 19524 ft | 348 kts | 299° |
| 2026-04-23 11:04 | 62.27389 | 8.05081 | 19071 ft | 345 kts | 298° |
| 2026-04-23 11:04 | 62.28466 | 8.00505 | 18611 ft | 342 kts | 298° |
| 2026-04-23 11:04 | 62.29531 | 7.95957 | 18116 ft | 339 kts | 298° |
| 2026-04-23 11:05 | 62.30584 | 7.91457 | 17648 ft | 335 kts | 299° |
| 2026-04-23 11:05 | 62.31626 | 7.87003 | 17186 ft | 332 kts | 298° |
| 2026-04-23 11:05 | 62.32658 | 7.82583 | 16733 ft | 329 kts | 298° |
| 2026-04-23 11:05 | 62.33678 | 7.78195 | 16263 ft | 326 kts | 299° |
| 2026-04-23 11:06 | 62.35678 | 7.69545 | 15357 ft | 320 kts | 298° |
| 2026-04-23 11:06 | 62.36664 | 7.65263 | 14893 ft | 318 kts | 298° |
| 2026-04-23 11:06 | 62.37643 | 7.61007 | 14436 ft | 317 kts | 298° |
| 2026-04-23 11:07 | 62.38626 | 7.56764 | 13961 ft | 315 kts | 299° |
| 2026-04-23 11:07 | 62.39626 | 7.52601 | 13469 ft | 310 kts | 300° |
| 2026-04-23 11:07 | 62.40609 | 7.48588 | 13041 ft | 304 kts | 300° |
| 2026-04-23 11:07 | 62.41608 | 7.44524 | 12420 ft | 305 kts | 300° |
| 2026-04-23 11:08 | 62.42595 | 7.40502 | 11770 ft | 309 kts | 300° |
| 2026-04-23 11:08 | 62.43593 | 7.36415 | 11294 ft | 306 kts | 300° |
| 2026-04-23 11:08 | 62.44577 | 7.32353 | 10777 ft | 302 kts | 300° |
| 2026-04-23 11:08 | 62.45539 | 7.28359 | 10438 ft | 296 kts | 300° |
| 2026-04-23 11:09 | 62.46468 | 7.24483 | 10321 ft | 283 kts | 300° |
| 2026-04-23 11:09 | 62.47354 | 7.20776 | 10147 ft | 274 kts | 300° |
| 2026-04-23 11:09 | 62.48215 | 7.17178 | 9882 ft | 266 kts | 300° |
| 2026-04-23 11:09 | 62.49068 | 7.13619 | 9762 ft | 266 kts | 300° |
| 2026-04-23 11:10 | 62.49922 | 7.10066 | 9626 ft | 266 kts | 300° |
| 2026-04-23 11:10 | 62.50776 | 7.06501 | 9232 ft | 268 kts | 300° |
| 2026-04-23 11:10 | 62.51633 | 7.02907 | 8887 ft | 267 kts | 300° |
| 2026-04-23 11:10 | 62.52484 | 6.99328 | 8442 ft | 268 kts | 299° |
| 2026-04-23 11:11 | 62.53323 | 6.95790 | 8000 ft | 262 kts | 299° |
| 2026-04-23 11:11 | 62.54152 | 6.92296 | 7478 ft | 259 kts | 299° |
| 2026-04-23 11:11 | 62.54972 | 6.88821 | 6936 ft | 258 kts | 299° |
| 2026-04-23 11:11 | 62.55771 | 6.85424 | 6673 ft | 247 kts | 299° |
| 2026-04-23 11:12 | 62.56535 | 6.82173 | 6547 ft | 238 kts | 299° |
| 2026-04-23 11:12 | 62.57272 | 6.79050 | 6368 ft | 226 kts | 299° |
| 2026-04-23 11:12 | 62.57978 | 6.76062 | 6109 ft | 220 kts | 298° |
| 2026-04-23 11:12 | 62.58668 | 6.73105 | 5985 ft | 217 kts | 298° |
| 2026-04-23 11:13 | 62.59341 | 6.70192 | 5768 ft | 216 kts | 298° |
| 2026-04-23 11:13 | 62.60010 | 6.67283 | 5495 ft | 214 kts | 297° |
| 2026-04-23 11:13 | 62.60670 | 6.64405 | 5215 ft | 212 kts | 297° |
| 2026-04-23 11:13 | 62.61325 | 6.61540 | 4922 ft | 211 kts | 297° |
| 2026-04-23 11:14 | 62.61977 | 6.58687 | 4633 ft | 210 kts | 297° |
| 2026-04-23 11:14 | 62.62621 | 6.55868 | 4386 ft | 205 kts | 296° |
| 2026-04-23 11:14 | 62.63249 | 6.53120 | 4080 ft | 200 kts | 296° |
| 2026-04-23 11:14 | 62.63798 | 6.50421 | 3830 ft | 193 kts | 285° |
| 2026-04-23 11:15 | 62.63847 | 6.47554 | 3603 ft | 192 kts | 260° |
| 2026-04-23 11:15 | 62.63360 | 6.44851 | 3363 ft | 193 kts | 247° |
| 2026-04-23 11:15 | 62.62796 | 6.42229 | 3091 ft | 191 kts | 247° |
| 2026-04-23 11:15 | 62.62241 | 6.39648 | 2837 ft | 191 kts | 247° |
| 2026-04-23 11:16 | 62.61684 | 6.37062 | 2577 ft | 185 kts | 246° |
| 2026-04-23 11:16 | 62.61162 | 6.34647 | 2332 ft | 167 kts | 246° |
| 2026-04-23 11:16 | 62.60687 | 6.32445 | 2096 ft | 155 kts | 246° |
| 2026-04-23 11:16 | 62.60245 | 6.30401 | 1872 ft | 145 kts | 246° |
| 2026-04-23 11:17 | 62.59821 | 6.28438 | 1672 ft | 142 kts | 246° |
| 2026-04-23 11:17 | 62.59404 | 6.26509 | 1486 ft | 141 kts | 246° |
| 2026-04-23 11:17 | 62.58992 | 6.24610 | 1305 ft | 134 kts | 246° |
| 2026-04-23 11:17 | 62.58600 | 6.22805 | 1093 ft | 130 kts | 246° |
| 2026-04-23 11:18 | 62.58218 | 6.21049 | 912 ft | 127 kts | 245° |
| 2026-04-23 11:18 | 62.57855 | 6.19317 | 713 ft | 126 kts | 246° |
| 2026-04-23 11:18 | 62.57498 | 6.17599 | 566 ft | 124 kts | 245° |
| 2026-04-23 11:18 | 62.57121 | 6.15934 | 388 ft | 123 kts | 243° |
| 2026-04-23 11:19 | 62.56755 | 6.14263 | 230 ft | 122 kts | 243° |
| 2026-04-23 11:19 | 62.56390 | 6.12606 | 84 ft | 121 kts | 244° |
| 2026-04-23 11:19 | 62.56055 | 6.11081 | 86 ft | 93 kts | 244° |
| 2026-04-23 11:19 | 62.55856 | 6.10160 | 55 ft | 40 kts | 245° |
| 2026-04-23 11:20 | 62.55800 | 6.09860 | 54 ft | 7 kts | 259° |
| 2026-04-23 11:20 | 62.55783 | 6.09830 | 55 ft | 3 kts | 175° |
| 2026-04-23 11:20 | 62.55777 | 6.09849 | 55 ft | 1 kts | 120° |
| 2026-04-23 11:20 | 62.55778 | 6.09873 | 55 ft | 4 kts | 78° |
| 2026-04-23 11:21 | 62.55808 | 6.09978 | 52 ft | 12 kts | 58° |
| 2026-04-23 11:21 | 62.55856 | 6.10174 | 55 ft | 18 kts | 64° |
| 2026-04-23 11:21 | 62.55917 | 6.10452 | 63 ft | 21 kts | 63° |
| 2026-04-23 11:21 | 62.55948 | 6.10674 | 67 ft | 11 kts | 101° |
| 2026-04-23 11:22 | 62.55931 | 6.10828 | 81 ft | 12 kts | 104° |
| 2026-04-23 11:22 | 62.55904 | 6.11041 | 80 ft | 13 kts | 105° |
| 2026-04-23 11:22 | 62.55913 | 6.11197 | 82 ft | 8 kts | 67° |
| 2026-04-23 11:22 | 62.55904 | 6.11269 | 82 ft | 6 kts | 143° |
| 2026-04-23 11:23 | 62.55882 | 6.11296 | 82 ft | 1 kts | 152° |
| 2026-04-23 11:23 | 62.55881 | 6.11298 | 82 ft | 0 kts | 153° |